createdAt,value
2018-03-21T00:00:30.213Z,30.10
2018-03-21T00:01:30.188Z,31.80
2018-03-21T00:02:30.151Z,29.00
2018-03-21T00:03:30.121Z,30.40
2018-03-21T00:04:30.091Z,29.30
2018-03-21T00:05:30.061Z,30.70
2018-03-21T00:06:30.031Z,30.80
2018-03-21T00:07:30.001Z,31.10
2018-03-21T00:08:29.969Z,31.70
2018-03-21T00:09:29.938Z,31.50
2018-03-21T00:10:29.910Z,31.60
2018-03-21T00:11:29.884Z,30.90
2018-03-21T00:12:29.885Z,32.20
2018-03-21T00:13:29.819Z,29.90
2018-03-21T00:14:29.789Z,32.90
2018-03-21T00:15:29.758Z,28.20
2018-03-21T00:16:29.730Z,31.10
2018-03-21T00:17:31.198Z,28.70
2018-03-21T00:18:29.669Z,30.50
2018-03-21T00:19:29.639Z,31.90
2018-03-21T00:20:29.609Z,28.70
2018-03-21T00:21:29.579Z,30.50
2018-03-21T00:22:29.556Z,31.90
2018-03-21T00:23:29.519Z,31.70
2018-03-21T00:24:29.489Z,31.40
2018-03-21T00:25:29.458Z,32.20
2018-03-21T00:26:29.432Z,31.70
2018-03-21T00:27:29.399Z,30.30
2018-03-21T00:28:29.368Z,28.60
2018-03-21T00:29:29.337Z,31.70
2018-03-21T00:30:29.307Z,30.80
2018-03-21T00:31:29.277Z,30.20
2018-03-21T00:32:29.248Z,31.60
2018-03-21T00:33:29.218Z,30.80
2018-03-21T00:34:29.190Z,32.00
2018-03-21T00:35:29.162Z,32.10
2018-03-21T00:36:29.129Z,30.90
2018-03-21T00:37:29.097Z,29.10
2018-03-21T00:38:29.067Z,29.20
2018-03-21T00:39:29.037Z,29.60
2018-03-21T00:40:29.007Z,29.60
2018-03-21T00:41:28.976Z,31.00
2018-03-21T00:42:28.946Z,28.30
2018-03-21T00:43:28.917Z,32.00
2018-03-21T00:44:28.887Z,31.60
2018-03-21T00:45:28.861Z,29.40
2018-03-21T00:46:28.828Z,32.10
2018-03-21T00:47:28.796Z,30.40
2018-03-21T00:48:28.766Z,31.10
2018-03-21T00:49:28.736Z,30.50
2018-03-21T00:50:28.706Z,31.60
2018-03-21T00:51:28.675Z,31.80
2018-03-21T00:52:28.646Z,31.80
2018-03-21T00:53:28.615Z,30.90
2018-03-21T00:54:28.585Z,29.30
2018-03-21T00:55:28.556Z,30.20
2018-03-21T00:56:28.526Z,32.20
2018-03-21T00:57:28.494Z,31.00
2018-03-21T00:58:28.464Z,30.10
2018-03-21T00:59:28.434Z,29.90
2018-03-21T01:00:28.406Z,30.50
2018-03-21T01:01:28.374Z,32.20
2018-03-21T01:02:28.345Z,30.10
2018-03-21T01:03:28.316Z,28.50
2018-03-21T01:04:28.287Z,32.80
2018-03-21T01:05:28.253Z,31.10
2018-03-21T01:06:28.223Z,29.10
2018-03-21T01:07:28.194Z,32.60
2018-03-21T01:08:28.164Z,31.20
2018-03-21T01:09:28.134Z,34.20
2018-03-21T01:10:28.109Z,31.10
2018-03-21T01:11:28.073Z,31.00
2018-03-21T01:12:28.044Z,29.90
2018-03-21T01:13:28.014Z,31.30
2018-03-21T01:14:27.985Z,30.50
2018-03-21T01:15:27.955Z,30.90
2018-03-21T01:16:27.923Z,31.20
2018-03-21T01:17:27.893Z,27.40
2018-03-21T01:18:27.863Z,29.00
2018-03-21T01:19:27.834Z,28.80
2018-03-21T01:20:27.803Z,30.50
2018-03-21T01:21:27.775Z,27.00
2018-03-21T01:22:27.751Z,27.00
2018-03-21T01:23:27.713Z,29.10
2018-03-21T01:24:27.687Z,29.90
2018-03-21T01:25:27.653Z,30.90
2018-03-21T01:26:27.622Z,30.00
2018-03-21T01:27:28.344Z,29.30
2018-03-21T01:28:27.563Z,29.30
2018-03-21T01:29:27.532Z,30.20
2018-03-21T01:30:27.508Z,31.60
2018-03-21T01:31:27.473Z,30.70
2018-03-21T01:32:27.446Z,30.90
2018-03-21T01:33:27.414Z,29.10
2018-03-21T01:34:27.385Z,31.80
2018-03-21T01:35:27.352Z,32.20
2018-03-21T01:36:27.323Z,31.10
2018-03-21T01:37:27.292Z,30.40
2018-03-21T01:38:27.264Z,30.80
2018-03-21T01:39:27.232Z,29.80
2018-03-21T01:40:27.211Z,31.40
2018-03-21T01:41:27.172Z,30.10
2018-03-21T01:42:27.242Z,29.80
2018-03-21T01:43:28.614Z,32.30
2018-03-21T01:44:27.084Z,30.20
2018-03-21T01:45:27.053Z,31.20
2018-03-21T01:46:27.022Z,31.00
2018-03-21T01:47:26.992Z,30.90
2018-03-21T01:48:26.964Z,31.10
2018-03-21T01:49:26.931Z,31.10
2018-03-21T01:50:26.901Z,30.70
2018-03-21T01:51:26.871Z,29.30
2018-03-21T01:52:26.842Z,31.00
2018-03-21T01:53:26.812Z,29.30
2018-03-21T01:54:26.785Z,31.60
2018-03-21T01:55:26.751Z,33.40
2018-03-21T01:56:26.722Z,30.50
2018-03-21T01:57:26.692Z,30.80
2018-03-21T01:58:26.662Z,32.20
2018-03-21T01:59:26.632Z,31.30
2018-03-21T02:00:26.601Z,32.00
2018-03-21T02:01:26.570Z,29.70
2018-03-21T02:02:26.542Z,32.00
2018-03-21T02:03:26.511Z,31.20
2018-03-21T02:04:26.480Z,31.80
2018-03-21T02:05:26.451Z,33.30
2018-03-21T02:06:26.419Z,32.00
2018-03-21T02:07:26.391Z,31.40
2018-03-21T02:08:26.365Z,31.00
2018-03-21T02:09:26.330Z,32.80
2018-03-21T02:10:26.300Z,31.90
2018-03-21T02:11:26.272Z,33.10
2018-03-21T02:12:26.243Z,32.70
2018-03-21T02:13:26.209Z,33.10
2018-03-21T02:14:26.180Z,34.50
2018-03-21T02:15:26.151Z,34.50
2018-03-21T02:16:26.121Z,34.00
2018-03-21T02:17:26.091Z,32.40
2018-03-21T02:18:26.064Z,34.10
2018-03-21T02:19:26.031Z,35.60
2018-03-21T02:20:25.999Z,33.50
2018-03-21T02:21:25.969Z,34.00
2018-03-21T02:22:25.940Z,35.00
2018-03-21T02:23:25.910Z,34.80
2018-03-21T02:24:25.880Z,36.50
2018-03-21T02:25:25.850Z,35.00
2018-03-21T02:26:27.320Z,34.30
2018-03-21T02:27:25.790Z,34.80
2018-03-21T02:28:25.761Z,34.20
2018-03-21T02:29:25.729Z,35.10
2018-03-21T02:30:25.699Z,35.40
2018-03-21T02:31:25.670Z,35.90
2018-03-21T02:32:25.639Z,36.00
2018-03-21T02:33:25.608Z,34.10
2018-03-21T02:34:25.587Z,33.90
2018-03-21T02:35:25.551Z,34.80
2018-03-21T02:36:25.520Z,35.10
2018-03-21T02:37:25.504Z,32.10
2018-03-21T02:38:25.458Z,35.60
2018-03-21T02:39:25.440Z,37.20
2018-03-21T02:40:25.398Z,32.90
2018-03-21T02:41:25.367Z,34.80
2018-03-21T02:42:25.338Z,36.00
2018-03-21T02:43:26.809Z,34.90
2018-03-21T02:44:25.279Z,34.20
2018-03-21T02:45:25.249Z,32.80
2018-03-21T02:46:25.219Z,34.10
2018-03-21T02:47:25.188Z,35.80
2018-03-21T02:48:25.157Z,34.80
2018-03-21T02:49:25.126Z,32.40
2018-03-21T02:50:25.098Z,35.90
2018-03-21T02:51:25.069Z,34.90
2018-03-21T02:52:25.039Z,33.50
2018-03-21T02:53:25.010Z,32.40
2018-03-21T02:54:24.983Z,33.90
2018-03-21T02:55:24.947Z,34.50
2018-03-21T02:56:24.918Z,32.00
2018-03-21T02:57:24.886Z,31.60
2018-03-21T02:58:24.856Z,32.90
2018-03-21T02:59:24.828Z,31.90
2018-03-21T03:00:24.797Z,32.90
2018-03-21T03:01:24.767Z,31.30
2018-03-21T03:02:24.737Z,34.30
2018-03-21T03:03:24.711Z,34.70
2018-03-21T03:04:24.677Z,33.00
2018-03-21T03:05:24.647Z,34.80
2018-03-21T03:06:24.617Z,33.10
2018-03-21T03:07:24.586Z,34.00
2018-03-21T03:08:24.556Z,33.10
2018-03-21T03:09:24.531Z,34.50
2018-03-21T03:10:24.495Z,35.70
2018-03-21T03:11:24.464Z,34.50
2018-03-21T03:12:24.435Z,34.80
2018-03-21T03:13:24.405Z,34.30
2018-03-21T03:14:24.379Z,34.30
2018-03-21T03:15:24.345Z,32.80
2018-03-21T03:16:24.313Z,35.20
2018-03-21T03:17:24.284Z,31.40
2018-03-21T03:18:24.254Z,33.40
2018-03-21T03:19:24.224Z,33.00
2018-03-21T03:20:24.198Z,34.10
2018-03-21T03:21:24.914Z,30.50
2018-03-21T03:22:24.133Z,32.70
2018-03-21T03:23:24.104Z,32.00
2018-03-21T03:24:24.074Z,31.60
2018-03-21T03:25:24.044Z,33.70
2018-03-21T03:26:24.024Z,32.30
2018-03-21T03:27:23.983Z,32.40
2018-03-21T03:28:23.955Z,34.40
2018-03-21T03:29:23.923Z,33.30
2018-03-21T03:30:23.892Z,34.10
2018-03-21T03:31:23.870Z,32.00
2018-03-21T03:32:23.834Z,34.70
2018-03-21T03:33:23.806Z,29.80
2018-03-21T03:34:23.772Z,32.50
2018-03-21T03:35:23.741Z,33.20
2018-03-21T03:36:23.711Z,32.30
2018-03-21T03:37:23.681Z,33.90
2018-03-21T03:38:23.651Z,33.70
2018-03-21T03:39:23.620Z,32.70
2018-03-21T03:40:23.592Z,34.20
2018-03-21T03:41:23.559Z,33.00
2018-03-21T03:42:23.533Z,31.50
2018-03-21T03:43:23.501Z,31.00
2018-03-21T03:44:23.471Z,32.50
2018-03-21T03:45:23.439Z,30.60
2018-03-21T03:46:23.417Z,30.90
2018-03-21T03:47:23.380Z,28.50
2018-03-21T03:48:23.350Z,30.40
2018-03-21T03:49:23.320Z,29.80
2018-03-21T03:50:23.291Z,30.80
2018-03-21T03:51:23.259Z,30.30
2018-03-21T03:52:23.234Z,32.10
2018-03-21T03:53:23.200Z,29.30
2018-03-21T03:54:23.168Z,29.20
2018-03-21T03:55:23.139Z,29.10
2018-03-21T03:56:23.110Z,27.60
2018-03-21T03:57:23.084Z,30.20
2018-03-21T03:58:23.800Z,27.50
2018-03-21T03:59:23.022Z,27.40
2018-03-21T04:00:22.990Z,29.40
2018-03-21T04:01:22.961Z,30.10
2018-03-21T04:02:22.928Z,30.20
2018-03-21T04:03:22.900Z,29.00
2018-03-21T04:04:22.870Z,27.80
2018-03-21T04:05:22.839Z,27.90
2018-03-21T04:06:22.809Z,26.50
2018-03-21T04:07:22.778Z,28.70
2018-03-21T04:08:22.750Z,29.00
2018-03-21T04:09:22.719Z,28.90
2018-03-21T04:10:22.689Z,28.20
2018-03-21T04:11:22.664Z,28.10
2018-03-21T04:12:22.630Z,28.50
2018-03-21T04:13:22.598Z,26.90
2018-03-21T04:14:22.569Z,28.00
2018-03-21T04:15:22.538Z,26.00
2018-03-21T04:16:22.510Z,26.10
2018-03-21T04:17:22.479Z,27.90
2018-03-21T04:18:22.449Z,27.70
2018-03-21T04:19:22.418Z,29.00
2018-03-21T04:20:22.388Z,28.90
2018-03-21T04:21:22.358Z,27.60
2018-03-21T04:22:22.327Z,26.40
2018-03-21T04:23:22.298Z,28.40
2018-03-21T04:24:22.268Z,26.70
2018-03-21T04:25:22.237Z,28.00
2018-03-21T04:26:22.208Z,28.60
2018-03-21T04:27:22.178Z,25.90
2018-03-21T04:28:22.148Z,26.20
2018-03-21T04:29:22.118Z,26.90
2018-03-21T04:30:22.093Z,26.20
2018-03-21T04:31:22.056Z,26.40
2018-03-21T04:32:22.027Z,27.00
2018-03-21T04:33:21.996Z,26.30
2018-03-21T04:34:21.966Z,26.70
2018-03-21T04:35:21.934Z,27.70
2018-03-21T04:36:21.907Z,27.20
2018-03-21T04:37:21.877Z,25.50
2018-03-21T04:38:21.845Z,27.70
2018-03-21T04:39:21.815Z,25.30
2018-03-21T04:40:21.787Z,27.40
2018-03-21T04:41:21.755Z,27.90
2018-03-21T04:42:21.729Z,26.60
2018-03-21T04:43:21.693Z,26.10
2018-03-21T04:44:21.665Z,27.70
2018-03-21T04:45:21.636Z,25.30
2018-03-21T04:46:21.604Z,26.00
2018-03-21T04:47:21.574Z,25.50
2018-03-21T04:48:21.544Z,26.40
2018-03-21T04:49:21.512Z,25.90
2018-03-21T04:50:21.489Z,25.10
2018-03-21T04:51:21.454Z,26.60
2018-03-21T04:52:21.427Z,24.60
2018-03-21T04:53:21.392Z,24.70
2018-03-21T04:54:21.363Z,25.70
2018-03-21T04:55:21.333Z,26.30
2018-03-21T04:56:21.303Z,26.10
2018-03-21T04:57:21.272Z,25.80
2018-03-21T04:58:21.243Z,26.20
2018-03-21T04:59:21.213Z,25.60
2018-03-21T05:00:21.184Z,27.30
2018-03-21T05:01:21.171Z,25.40
2018-03-21T05:02:21.122Z,26.00
2018-03-21T05:03:21.092Z,27.10
2018-03-21T05:04:21.063Z,26.00
2018-03-21T05:05:21.032Z,25.30
2018-03-21T05:06:21.000Z,24.20
2018-03-21T05:07:20.972Z,24.80
2018-03-21T05:08:20.982Z,23.00
2018-03-21T05:09:20.911Z,26.80
2018-03-21T05:10:20.882Z,25.00
2018-03-21T05:11:20.851Z,24.20
2018-03-21T05:12:20.824Z,22.70
2018-03-21T05:13:20.791Z,23.30
2018-03-21T05:14:20.761Z,23.20
2018-03-21T05:15:20.730Z,23.20
2018-03-21T05:16:20.701Z,24.90
2018-03-21T05:17:20.671Z,23.90
2018-03-21T05:18:20.646Z,23.90
2018-03-21T05:19:20.611Z,22.90
2018-03-21T05:20:20.581Z,21.80
2018-03-21T05:21:20.548Z,24.00
2018-03-21T05:22:20.520Z,24.50
2018-03-21T05:23:20.490Z,23.70
2018-03-21T05:24:20.476Z,23.00
2018-03-21T05:25:20.427Z,20.80
2018-03-21T05:26:20.402Z,20.20
2018-03-21T05:27:20.368Z,21.90
2018-03-21T05:28:20.339Z,21.60
2018-03-21T05:29:20.308Z,22.10
2018-03-21T05:30:20.277Z,23.10
2018-03-21T05:31:20.248Z,23.80
2018-03-21T05:32:20.219Z,22.00
2018-03-21T05:33:20.187Z,22.70
2018-03-21T05:34:20.157Z,22.70
2018-03-21T05:35:20.127Z,20.40
2018-03-21T05:36:20.096Z,21.60
2018-03-21T05:37:20.091Z,21.20
2018-03-21T05:38:20.041Z,25.50
2018-03-21T05:39:20.007Z,22.80
2018-03-21T05:40:19.977Z,22.00
2018-03-21T05:41:19.961Z,22.10
2018-03-21T05:42:19.917Z,22.10
2018-03-21T05:43:19.894Z,20.70
2018-03-21T05:44:19.856Z,21.30
2018-03-21T05:45:19.825Z,19.80
2018-03-21T05:46:19.795Z,21.80
2018-03-21T05:47:19.765Z,21.10
2018-03-21T05:48:19.734Z,23.50
2018-03-21T05:49:19.704Z,22.40
2018-03-21T05:50:19.676Z,21.40
2018-03-21T05:51:19.645Z,23.20
2018-03-21T05:52:19.614Z,21.70
2018-03-21T05:53:19.584Z,20.20
2018-03-21T05:54:19.553Z,22.50
2018-03-21T05:55:19.522Z,24.20
2018-03-21T05:56:19.494Z,21.20
2018-03-21T05:57:19.461Z,21.70
2018-03-21T05:58:19.433Z,22.40
2018-03-21T05:59:19.402Z,23.00
2018-03-21T06:00:19.422Z,21.20
2018-03-21T06:01:19.342Z,22.90
2018-03-21T06:02:19.313Z,21.30
2018-03-21T06:03:19.282Z,21.30
2018-03-21T06:04:19.299Z,20.70
2018-03-21T06:05:19.222Z,22.80
2018-03-21T06:06:19.192Z,20.20
2018-03-21T06:07:19.168Z,21.40
2018-03-21T06:08:19.140Z,21.80
2018-03-21T06:09:19.101Z,22.30
2018-03-21T06:10:19.071Z,21.00
2018-03-21T06:11:19.042Z,20.20
2018-03-21T06:12:19.011Z,21.10
2018-03-21T06:13:19.731Z,19.00
2018-03-21T06:14:18.955Z,19.70
2018-03-21T06:15:18.921Z,19.20
2018-03-21T06:16:18.891Z,19.80
2018-03-21T06:17:18.859Z,19.10
2018-03-21T06:18:18.832Z,19.10
2018-03-21T06:19:18.800Z,18.40
2018-03-21T06:20:18.771Z,16.70
2018-03-21T06:21:18.738Z,16.80
2018-03-21T06:22:18.709Z,15.40
2018-03-21T06:23:18.678Z,15.10
2018-03-21T06:24:18.648Z,13.70
2018-03-21T06:25:18.619Z,15.20
2018-03-21T06:26:18.589Z,14.30
2018-03-21T06:27:18.564Z,13.40
2018-03-21T06:28:18.528Z,14.50
2018-03-21T06:29:18.497Z,13.30
2018-03-21T06:30:18.467Z,14.00
2018-03-21T06:31:18.437Z,14.30
2018-03-21T06:32:18.411Z,12.10
2018-03-21T06:33:18.377Z,12.90
2018-03-21T06:34:19.848Z,13.50
2018-03-21T06:35:18.318Z,11.60
2018-03-21T06:36:18.291Z,11.90
2018-03-21T06:37:18.258Z,13.50
2018-03-21T06:38:18.226Z,11.30
2018-03-21T06:39:18.201Z,13.30
2018-03-21T06:40:18.167Z,11.10
2018-03-21T06:41:18.137Z,11.10
2018-03-21T06:42:18.109Z,11.90
2018-03-21T06:43:18.076Z,11.40
2018-03-21T06:44:18.046Z,10.90
2018-03-21T06:45:18.019Z,11.00
2018-03-21T06:46:17.984Z,10.60
2018-03-21T06:47:17.955Z,10.00
2018-03-21T06:48:17.926Z,10.70
2018-03-21T06:49:17.894Z,9.90
2018-03-21T06:50:17.864Z,9.00
2018-03-21T06:51:17.834Z,9.30
2018-03-21T06:52:17.804Z,9.90
2018-03-21T06:53:17.775Z,8.70
2018-03-21T06:54:17.744Z,9.80
2018-03-21T06:55:17.713Z,9.80
2018-03-21T06:56:17.682Z,9.10
2018-03-21T06:57:17.652Z,9.30
2018-03-21T06:58:17.622Z,9.40
2018-03-21T06:59:17.592Z,9.20
2018-03-21T07:00:17.562Z,8.70
2018-03-21T07:01:17.530Z,9.00
2018-03-21T07:02:17.501Z,8.00
2018-03-21T07:03:17.470Z,8.20
2018-03-21T07:04:17.441Z,9.20
2018-03-21T07:05:17.410Z,7.80
2018-03-21T07:06:17.380Z,8.50
2018-03-21T07:07:17.348Z,9.10
2018-03-21T07:08:17.319Z,8.30
2018-03-21T07:09:17.289Z,8.20
2018-03-21T07:10:17.258Z,8.10
2018-03-21T07:11:17.229Z,8.10
2018-03-21T07:12:17.198Z,8.10
2018-03-21T07:13:17.168Z,8.40
2018-03-21T07:14:17.143Z,8.00
2018-03-21T07:15:17.106Z,7.70
2018-03-21T07:16:17.078Z,8.00
2018-03-21T07:17:17.047Z,8.00
2018-03-21T07:18:17.017Z,7.80
2018-03-21T07:19:16.986Z,9.10
2018-03-21T07:20:16.955Z,8.10
2018-03-21T07:21:16.924Z,8.80
2018-03-21T07:22:16.895Z,7.60
2018-03-21T07:23:16.865Z,9.60
2018-03-21T07:24:16.840Z,8.00
2018-03-21T07:25:16.809Z,9.40
2018-03-21T07:26:16.775Z,7.70
2018-03-21T07:27:16.744Z,9.70
2018-03-21T07:28:16.715Z,7.20
2018-03-21T07:29:16.688Z,7.40
2018-03-21T07:30:16.654Z,7.50
2018-03-21T07:31:16.624Z,7.10
2018-03-21T07:32:16.594Z,7.40
2018-03-21T07:33:16.564Z,8.40
2018-03-21T07:34:16.533Z,7.70
2018-03-21T07:35:16.503Z,6.40
2018-03-21T07:36:16.473Z,6.50
2018-03-21T07:37:16.442Z,6.50
2018-03-21T07:38:16.412Z,6.80
2018-03-21T07:39:16.382Z,9.50
2018-03-21T07:40:16.353Z,6.20
2018-03-21T07:41:16.322Z,8.00
2018-03-21T07:42:16.293Z,6.00
2018-03-21T07:43:16.264Z,8.00
2018-03-21T07:44:16.233Z,8.40
2018-03-21T07:45:16.202Z,8.10
2018-03-21T07:46:16.173Z,7.50
2018-03-21T07:47:16.147Z,6.50
2018-03-21T07:48:16.113Z,7.80
2018-03-21T07:49:16.083Z,5.60
2018-03-21T07:50:16.054Z,6.10
2018-03-21T07:51:16.023Z,10.40
2018-03-21T07:52:15.993Z,6.10
2018-03-21T07:53:15.967Z,6.30
2018-03-21T07:54:15.934Z,8.10
2018-03-21T07:55:15.904Z,8.20
2018-03-21T07:56:15.875Z,7.40
2018-03-21T07:57:15.844Z,6.90
2018-03-21T07:58:15.816Z,6.00
2018-03-21T07:59:15.786Z,8.30
2018-03-21T08:00:15.756Z,9.70
2018-03-21T08:01:15.726Z,8.40
2018-03-21T08:02:15.704Z,7.80
2018-03-21T08:03:15.668Z,6.50
2018-03-21T08:04:15.639Z,7.60
2018-03-21T08:05:15.609Z,6.50
2018-03-21T08:06:15.584Z,6.70
2018-03-21T08:07:15.551Z,6.50
2018-03-21T08:08:15.552Z,6.80
2018-03-21T08:09:15.491Z,7.30
2018-03-21T08:10:15.461Z,6.40
2018-03-21T08:11:15.433Z,6.20
2018-03-21T08:12:15.404Z,6.90
2018-03-21T08:13:15.374Z,7.00
2018-03-21T08:14:15.344Z,6.10
2018-03-21T08:15:15.315Z,8.70
2018-03-21T08:16:15.286Z,8.00
2018-03-21T08:17:15.256Z,7.10
2018-03-21T08:18:15.227Z,7.60
2018-03-21T08:19:15.198Z,6.30
2018-03-21T08:20:15.170Z,7.10
2018-03-21T08:21:15.138Z,8.50
2018-03-21T08:22:15.108Z,7.70
2018-03-21T08:23:15.080Z,6.40
2018-03-21T08:24:15.052Z,6.80
2018-03-21T08:25:15.021Z,7.20
2018-03-21T08:26:14.991Z,9.00
2018-03-21T08:27:14.963Z,6.10
2018-03-21T08:28:14.934Z,17.00
2018-03-21T08:29:14.903Z,10.30
2018-03-21T08:30:14.875Z,8.20
2018-03-21T08:31:14.846Z,6.40
2018-03-21T08:32:14.818Z,6.20
2018-03-21T08:33:14.788Z,6.80
2018-03-21T08:34:14.759Z,8.90
2018-03-21T08:35:14.730Z,6.50
2018-03-21T08:36:14.701Z,6.80
2018-03-21T08:37:14.676Z,7.90
2018-03-21T08:38:14.641Z,7.50
2018-03-21T08:39:14.613Z,9.10
2018-03-21T08:40:14.583Z,7.10
2018-03-21T08:41:15.303Z,8.90
2018-03-21T08:42:14.524Z,8.00
2018-03-21T08:43:14.494Z,7.70
2018-03-21T08:44:14.467Z,6.80
2018-03-21T08:45:14.435Z,5.80
2018-03-21T08:46:14.411Z,5.90
2018-03-21T08:47:14.384Z,8.10
2018-03-21T08:48:14.373Z,5.60
2018-03-21T08:49:14.319Z,7.40
2018-03-21T08:50:14.291Z,8.90
2018-03-21T08:51:14.261Z,7.00
2018-03-21T08:52:14.235Z,6.20
2018-03-21T08:53:14.201Z,6.30
2018-03-21T08:54:14.173Z,7.00
2018-03-21T08:55:14.145Z,6.20
2018-03-21T08:56:14.115Z,7.30
2018-03-21T08:57:14.085Z,7.80
2018-03-21T08:58:14.056Z,8.80
2018-03-21T08:59:14.027Z,6.90
2018-03-21T09:00:13.998Z,5.10
2018-03-21T09:01:13.968Z,7.00
2018-03-21T09:02:13.941Z,6.00
2018-03-21T09:03:13.910Z,6.20
2018-03-21T09:04:13.881Z,5.60
2018-03-21T09:05:13.850Z,5.50
2018-03-21T09:06:13.822Z,7.10
2018-03-21T09:07:13.793Z,7.50
2018-03-21T09:08:13.765Z,6.70
2018-03-21T09:09:13.734Z,5.90
2018-03-21T09:10:13.705Z,5.40
2018-03-21T09:11:13.677Z,5.90
2018-03-21T09:12:13.649Z,8.10
2018-03-21T09:13:13.623Z,5.70
2018-03-21T09:14:13.590Z,5.70
2018-03-21T09:15:13.561Z,5.50
2018-03-21T09:16:13.534Z,7.10
2018-03-21T09:17:13.505Z,5.60
2018-03-21T09:18:13.517Z,16.20
2018-03-21T09:19:13.448Z,5.80
2018-03-21T09:20:13.420Z,6.60
2018-03-21T09:21:13.390Z,6.50
2018-03-21T09:22:13.362Z,6.40
2018-03-21T09:23:13.334Z,6.10
2018-03-21T09:24:13.307Z,6.20
2018-03-21T09:25:13.277Z,5.60
2018-03-21T09:26:13.249Z,5.30
2018-03-21T09:27:13.222Z,5.70
2018-03-21T09:28:13.192Z,5.40
2018-03-21T09:29:13.164Z,8.30
2018-03-21T09:30:13.136Z,5.30
2018-03-21T09:31:13.107Z,5.90
2018-03-21T09:32:13.080Z,7.10
2018-03-21T09:33:13.802Z,7.30
2018-03-21T09:34:13.023Z,7.00
2018-03-21T09:35:12.996Z,6.50
2018-03-21T09:36:12.967Z,6.60
2018-03-21T09:37:12.938Z,5.30
2018-03-21T09:38:12.910Z,11.20
2018-03-21T09:39:12.883Z,6.00
2018-03-21T09:40:12.856Z,6.40
2018-03-21T09:41:12.827Z,5.30
2018-03-21T09:42:12.798Z,5.40
2018-03-21T09:43:12.774Z,5.50
2018-03-21T09:44:12.744Z,6.50
2018-03-21T09:45:12.713Z,5.30
2018-03-21T09:46:12.686Z,5.20
2018-03-21T09:47:12.658Z,9.80
2018-03-21T09:48:12.630Z,5.50
2018-03-21T09:49:12.600Z,5.40
2018-03-21T09:50:12.571Z,6.00
2018-03-21T09:51:12.543Z,5.30
2018-03-21T09:52:12.516Z,5.30
2018-03-21T09:53:12.487Z,5.60
2018-03-21T09:54:12.459Z,7.00
2018-03-21T09:55:12.431Z,6.00
2018-03-21T09:56:12.401Z,5.20
2018-03-21T09:57:12.374Z,5.70
2018-03-21T09:58:12.345Z,5.50
2018-03-21T09:59:12.317Z,6.70
2018-03-21T10:00:12.289Z,6.40
2018-03-21T10:01:12.259Z,8.40
2018-03-21T10:02:12.231Z,6.10
2018-03-21T10:03:12.203Z,6.20
2018-03-21T10:04:12.175Z,5.70
2018-03-21T10:05:12.146Z,5.90
2018-03-21T10:06:12.118Z,5.80
2018-03-21T10:07:12.089Z,6.70
2018-03-21T10:08:12.062Z,5.40
2018-03-21T10:09:12.033Z,6.70
2018-03-21T10:10:12.005Z,7.90
2018-03-21T10:11:11.976Z,7.10
2018-03-21T10:12:11.948Z,8.00
2018-03-21T10:13:11.922Z,12.20
2018-03-21T10:14:11.891Z,5.20
2018-03-21T10:15:11.864Z,4.70
2018-03-21T10:16:11.837Z,6.40
2018-03-21T10:17:11.809Z,6.50
2018-03-21T10:18:11.780Z,8.90
2018-03-21T10:19:11.752Z,5.20
2018-03-21T10:20:11.726Z,6.60
2018-03-21T10:21:11.697Z,4.90
2018-03-21T10:22:11.670Z,6.70
2018-03-21T10:23:11.642Z,6.70
2018-03-21T10:24:11.614Z,5.10
2018-03-21T10:25:11.585Z,5.40
2018-03-21T10:26:11.557Z,6.00
2018-03-21T10:27:11.530Z,6.00
2018-03-21T10:28:11.502Z,6.70
2018-03-21T10:29:11.474Z,5.60
2018-03-21T10:30:12.197Z,5.90
2018-03-21T10:31:11.419Z,6.30
2018-03-21T10:32:11.391Z,5.40
2018-03-21T10:33:11.362Z,6.70
2018-03-21T10:34:11.335Z,6.40
2018-03-21T10:35:11.307Z,5.50
2018-03-21T10:36:11.284Z,5.90
2018-03-21T10:37:11.250Z,7.80
2018-03-21T10:38:11.228Z,6.10
2018-03-21T10:39:11.194Z,6.20
2018-03-21T10:40:11.166Z,5.50
2018-03-21T10:41:11.139Z,6.40
2018-03-21T10:42:11.111Z,5.00
2018-03-21T10:43:11.083Z,5.70
2018-03-21T10:44:11.055Z,7.30
2018-03-21T10:45:11.026Z,5.40
2018-03-21T10:46:11.000Z,5.50
2018-03-21T10:47:10.972Z,6.70
2018-03-21T10:48:10.944Z,5.10
2018-03-21T10:49:10.916Z,6.60
2018-03-21T10:50:10.888Z,6.20
2018-03-21T10:51:10.861Z,5.80
2018-03-21T10:52:10.833Z,7.00
2018-03-21T10:53:10.808Z,5.00
2018-03-21T10:54:10.821Z,5.20
2018-03-21T10:55:10.749Z,5.80
2018-03-21T10:56:10.722Z,5.10
2018-03-21T10:57:10.699Z,5.70
2018-03-21T10:58:10.667Z,5.50
2018-03-21T10:59:10.694Z,6.20
2018-03-21T11:00:10.613Z,5.00
2018-03-21T11:01:10.585Z,5.00
2018-03-21T11:02:10.558Z,6.20
2018-03-21T11:03:13.534Z,6.50
2018-03-21T11:04:10.504Z,4.70
2018-03-21T11:05:10.477Z,4.70
2018-03-21T11:06:10.450Z,5.10
2018-03-21T11:07:10.423Z,5.10
2018-03-21T11:08:10.416Z,5.80
2018-03-21T11:09:10.376Z,5.70
2018-03-21T11:10:10.343Z,5.70
2018-03-21T11:11:10.317Z,5.90
2018-03-21T11:12:10.290Z,5.00
2018-03-21T11:13:10.261Z,8.40
2018-03-21T11:14:10.234Z,5.00
2018-03-21T11:15:10.209Z,5.30
2018-03-21T11:16:10.181Z,5.40
2018-03-21T11:17:10.155Z,4.70
2018-03-21T11:18:10.129Z,5.30
2018-03-21T11:19:10.104Z,6.60
2018-03-21T11:20:10.826Z,5.50
2018-03-21T11:21:10.048Z,5.00
2018-03-21T11:22:10.022Z,6.70
2018-03-21T11:23:09.995Z,5.70
2018-03-21T11:24:09.969Z,4.90
2018-03-21T11:25:09.948Z,5.20
2018-03-21T11:26:09.916Z,5.40
2018-03-21T11:27:09.890Z,5.20
2018-03-21T11:28:09.862Z,4.40
2018-03-21T11:29:09.837Z,4.20
2018-03-21T11:30:09.809Z,4.30
2018-03-21T11:31:09.785Z,4.10
2018-03-21T11:32:09.759Z,5.00
2018-03-21T11:33:09.730Z,4.60
2018-03-21T11:34:09.769Z,5.20
2018-03-21T11:35:09.677Z,4.80
2018-03-21T11:36:09.651Z,5.00
2018-03-21T11:37:09.626Z,5.10
2018-03-21T11:38:09.598Z,5.10
2018-03-21T11:39:09.572Z,5.70
2018-03-21T11:40:09.547Z,5.60
2018-03-21T11:41:09.520Z,5.70
2018-03-21T11:42:09.561Z,4.60
2018-03-21T11:43:09.469Z,4.70
2018-03-21T11:44:09.441Z,5.00
2018-03-21T11:45:09.416Z,5.60
2018-03-21T11:46:09.390Z,4.80
2018-03-21T11:47:09.364Z,5.00
2018-03-21T11:48:09.339Z,5.10
2018-03-21T11:49:09.314Z,7.80
2018-03-21T11:50:09.285Z,6.30
2018-03-21T11:51:09.306Z,5.10
2018-03-21T11:52:09.234Z,6.40
2018-03-21T11:53:09.207Z,4.30
2018-03-21T11:54:09.185Z,6.40
2018-03-21T11:55:09.157Z,6.20
2018-03-21T11:56:09.132Z,5.10
2018-03-21T11:57:09.104Z,4.80
2018-03-21T11:58:09.077Z,5.30
2018-03-21T11:59:09.052Z,5.30
2018-03-21T12:00:09.026Z,4.80
2018-03-21T12:01:08.999Z,4.50
2018-03-21T12:02:08.973Z,4.00
2018-03-21T12:03:08.948Z,4.00
2018-03-21T12:04:08.922Z,4.60
2018-03-21T12:05:08.896Z,4.00
2018-03-21T12:06:09.619Z,4.90
2018-03-21T12:07:08.843Z,5.70
2018-03-21T12:08:08.816Z,4.50
2018-03-21T12:09:08.789Z,3.70
2018-03-21T12:10:08.763Z,3.50
2018-03-21T12:11:08.738Z,3.70
2018-03-21T12:12:08.711Z,4.70
2018-03-21T12:13:08.684Z,4.40
2018-03-21T12:14:08.658Z,3.80
2018-03-21T12:15:08.632Z,4.20
2018-03-21T12:16:08.605Z,4.00
2018-03-21T12:17:08.580Z,4.10
2018-03-21T12:18:08.555Z,4.90
2018-03-21T12:19:08.527Z,4.40
2018-03-21T12:20:08.506Z,4.30
2018-03-21T12:21:08.476Z,4.90
2018-03-21T12:22:08.450Z,6.70
2018-03-21T12:23:08.424Z,5.80
2018-03-21T12:24:08.398Z,5.00
2018-03-21T12:25:08.371Z,6.40
2018-03-21T12:26:08.345Z,4.20
2018-03-21T12:27:08.320Z,4.60
2018-03-21T12:28:08.295Z,4.20
2018-03-21T12:29:08.267Z,5.80
2018-03-21T12:30:08.242Z,4.60
2018-03-21T12:31:08.219Z,4.50
2018-03-21T12:32:08.191Z,5.90
2018-03-21T12:33:08.165Z,5.30
2018-03-21T12:34:08.140Z,3.90
2018-03-21T12:35:08.114Z,4.50
2018-03-21T12:36:08.086Z,4.10
2018-03-21T12:37:08.061Z,4.10
2018-03-21T12:38:08.066Z,4.20
2018-03-21T12:39:08.009Z,3.40
2018-03-21T12:40:07.984Z,4.10
2018-03-21T12:41:07.958Z,3.70
2018-03-21T12:42:07.932Z,3.80
2018-03-21T12:43:07.906Z,3.90
2018-03-21T12:44:07.881Z,3.60
2018-03-21T12:45:07.853Z,3.80
2018-03-21T12:46:07.827Z,3.30
2018-03-21T12:47:07.802Z,3.50
2018-03-21T12:48:07.774Z,4.00
2018-03-21T12:49:07.746Z,2.80
2018-03-21T12:50:07.742Z,3.40
2018-03-21T12:51:07.695Z,3.60
2018-03-21T12:52:07.681Z,3.70
2018-03-21T12:53:07.640Z,4.20
2018-03-21T12:54:07.613Z,4.30
2018-03-21T12:55:07.586Z,3.70
2018-03-21T12:56:07.652Z,3.10
2018-03-21T12:57:07.533Z,2.80
2018-03-21T12:58:07.506Z,3.40
2018-03-21T12:59:07.479Z,3.50
2018-03-21T13:00:07.451Z,3.20
2018-03-21T13:01:07.424Z,3.30
2018-03-21T13:02:07.397Z,3.20
2018-03-21T13:03:07.370Z,9.50
2018-03-21T13:04:07.343Z,6.10